x

Central Dixon Entrance Buoy (46145) Wave Buoy

11:00pm - Tue 29th Jul 2014 All times are PDT. -7 hours from GMT.

  • Sig Wave height 1.3ft
  • Peak Period 6s
  • Wind
  • Sea Temp 55°f
  • Air Temp 56°f
  • Sea Pressure 1021.5mb
  • Central Dixon Entrance Buoy
  • Central Dixon Entrance Buoy

More Historic Weather Station data

Upgrade to MSW Pro to gain access to the past 30 days of data for over 8000 Wavebouys and Weather Stations around the globe.

Join Pro

Comparision Forecast

View Surf forecast
   
Tue 07/29 11:00pm 1.3ft 6s  -  2 mph 1021.5mb 55f 56f
10:00pm 1.3ft 5s 2 4 mph 1021.3mb 55f 56f
9:00pm 1.6ft 6s  -  mph 1021.2mb 56f 58f
8:00pm 1.6ft 7s 7 9 mph 1020.7mb 56f 56f
7:00pm 1.6ft 5s 11 13 mph 1020.2mb 56f 56f
6:00pm 2ft 5s 7 9 mph 1019.9mb 57f 58f
5:00pm 2ft 5s 7 9 mph 1019.9mb 57f 56f
4:00pm 2ft 7s 11 13 mph 1019.6mb 57f 56f
3:00pm 2ft 7s 7 9 mph 1019.2mb 58f 57f
2:00pm 1.6ft 7s 2 4 mph 1018.8mb 57f 58f
1:00pm 1.6ft 5s 7 9 mph 1018.1mb 56f 57f
12:00pm 2ft 5s 11 13 mph 1017.3mb 56f 56f
11:00am 2.5ft 5s 13 16 mph 1016.4mb 55f 55f
10:00am 2.5ft 5s 11 13 mph 1015.5mb 55f 54f
9:00am 2.5ft 4s 7 9 mph 1014.8mb 55f 54f
8:00am 2.5ft 4s 4 7 mph 1014.4mb 55f 55f
7:00am 2.5ft 6s 4 7 mph 1013.9mb 56f 55f
6:00am 2ft 7s 7
mph
1013.7mb 56f 55f
5:00am 1.6ft 8s 4
mph
1013.7mb 56f 56f
4:00am 1.6ft 8s 2
mph
1013.6mb 56f 56f
3:00am 1.6ft 8s 4
mph
1013.8mb 56f 56f
2:00am 1.6ft 7s 4
mph
1014.3mb 56f 55f
1:00am 1.6ft 6s 4
mph
1014.8mb 56f 55f
12:00am 2ft 7s 7 9 mph 1015.3mb 56f 55f
Mon 07/28 11:00pm 2.5ft 5s 7
mph
1015.8mb 56f 55f
10:00pm 2.5ft 6s 7
mph
1016.1mb 56f 55f
9:00pm 3.5ft 5s 7
mph
1016.1mb 56f 55f
8:00pm 3.5ft 6s 4
mph
1016.3mb 56f 55f
7:00pm 3.5ft 5s 4
mph
1016.3mb 56f 55f
6:00pm 4ft 5s 2
mph
1016.4mb 56f 55f
5:00pm 4.5ft 5s 4 9 mph 1016.2mb 56f 56f
4:00pm 4.5ft 5s 22 25 mph 1015.4mb 56f 57f
3:00pm 3.5ft 4s 25 29 mph 1014.9mb 56f 57f
2:00pm 2.5ft 4s 20 25 mph 1015.4mb 56f 56f
1:00pm 2.5ft 8s 18 20 mph 1016.5mb 56f 56f
12:00pm 2ft 8s 13 18 mph 1017.2mb 56f 56f
11:00am 2.5ft 8s 16 18 mph 1017.4mb 55f 56f
10:00am 2.5ft 8s 18 20 mph 1017.4mb 55f 56f
9:00am 2.5ft 8s 16 18 mph 1017.6mb 55f 56f
8:00am 2ft 8s 13 16 mph 1018mb 56f 56f
7:00am 2ft 8s 13 16 mph 1018.3mb 56f 56f
6:00am 2.5ft 4s 11 13 mph 1018.5mb 56f 56f
5:00am 2.5ft 4s 9 11 mph 1018.6mb 56f 56f
4:00am 2.5ft 4s 11 13 mph 1018.6mb 56f 56f
3:00am 2.5ft 8s 16 18 mph 1018.6mb 56f 56f
2:00am 2.5ft 8s 11 13 mph 1019mb 56f 56f
1:00am 2ft 8s 11 13 mph 1019.3mb 56f 56f
12:00am 2.5ft 8s 11 13 mph 1019.4mb 55f 56f
Sun 07/27 11:00pm 2.5ft 8s 13 18 mph 1019.5mb 55f 57f
10:00pm 2.5ft 8s 13 16 mph 1019.6mb 55f 57f
9:00pm 2.5ft 8s 13 16 mph 1019.4mb 56f 57f
8:00pm 2ft 7s 13
mph
1019.5mb 56f 57f
7:00pm 2.5ft 8s 11 13 mph 1019.7mb 56f 57f
6:00pm 3ft 8s 9 11 mph 1019.9mb 56f 57f
5:00pm 3ft 8s 11 13 mph 1019.8mb 56f 57f
4:00pm 2.5ft 8s 9 11 mph 1019.9mb 55f 57f
3:00pm 2.5ft 8s 16 18 mph 1019.2mb 55f 57f
2:00pm 2.5ft 8s 13 16 mph 1019.3mb 55f 57f
1:00pm 2.5ft 8s 9 11 mph 1019.4mb 55f 57f
12:00pm 2.5ft 8s 9 11 mph 1019.3mb 55f 56f
11:00am 2.5ft 7s 9 11 mph 1019.2mb 55f 56f
10:00am 2.5ft 8s 9 11 mph 1019mb 55f 56f
9:00am 2.5ft 8s 9 11 mph 1018.9mb 55f 56f
8:00am 2.5ft 8s 9
mph
1018.9mb 55f 56f
7:00am 2.5ft 8s 7
mph
1018.8mb 55f 55f
6:00am 2.5ft 8s 7 9 mph 1018.8mb 55f 56f
5:00am 2.5ft 8s 9 11 mph 1018.3mb 55f 56f
4:00am 2.5ft 8s 9
mph
1018.1mb 55f 56f
3:00am 2.5ft 8s 9 11 mph 1017.8mb 55f 56f
2:00am 2.5ft 8s 7 9 mph 1017.7mb 55f 56f
1:00am 3ft 8s 9 11 mph 1017.8mb 54f 56f
12:00am 3ft 8s 11 13 mph 1017.5mb 55f 56f
Sat 07/26 11:00pm 3.5ft 8s 9
mph
1017.4mb 54f 56f
10:00pm 3.5ft 7s 9
mph
1017.1mb 54f 56f
9:00pm 4ft 7s 11 13 mph 1016.6mb 54f 56f
8:00pm 4.5ft 7s 9 11 mph 1016.4mb 54f 56f
7:00pm 4.5ft 6s 9 11 mph 1016.2mb 54f 56f
6:00pm 5ft 5s 18 22 mph 1015.4mb 54f 56f
5:00pm 5ft 5s 20 25 mph 1015.2mb 55f 57f
4:00pm 4.5ft 5s 20 22 mph 1015mb 55f 57f
3:00pm 3.5ft 5s 20 25 mph 1015.1mb 55f 57f
2:00pm 3.5ft 5s 16 20 mph 1015.1mb 55f 57f
1:00pm 3.5ft 8s 18 22 mph 1015mb 55f 57f
12:00pm 3ft 8s 18 20 mph 1014.9mb 55f 57f
11:00am 3.5ft 8s 18 20 mph 1014.9mb 55f 57f
10:00am 3.5ft 7s 16 18 mph 1014.8mb 55f 56f
9:00am 3.5ft 7s 13 18 mph 1014.6mb 55f 56f
8:00am 3.5ft 8s 16 18 mph 1014.3mb 55f 56f